createdAt,value
2018-03-27T00:00:59.117Z,5.20
2018-03-27T00:03:26.580Z,5.20
2018-03-27T00:05:54.044Z,5.20
2018-03-27T00:08:21.603Z,5.30
2018-03-27T00:10:49.092Z,5.30
2018-03-27T00:13:17.320Z,5.40
2018-03-27T00:15:44.969Z,5.40
2018-03-27T00:18:12.430Z,5.40
2018-03-27T00:20:39.896Z,5.40
2018-03-27T00:23:07.348Z,5.30
2018-03-27T00:25:34.838Z,5.20
2018-03-27T00:28:14.149Z,5.20
2018-03-27T00:30:53.550Z,5.30
2018-03-27T00:33:32.954Z,5.30
2018-03-27T00:36:12.280Z,5.30
2018-03-27T00:38:51.708Z,5.30
2018-03-27T00:44:34.855Z,5.40
2018-03-27T00:47:02.357Z,5.40
2018-03-27T00:49:29.936Z,5.40
2018-03-27T00:51:57.396Z,5.40
2018-03-27T00:54:24.999Z,5.40
2018-03-27T00:56:53.233Z,5.30
2018-03-27T00:59:20.738Z,5.20
2018-03-27T01:01:48.207Z,5.20
2018-03-27T01:04:16.470Z,5.20
2018-03-27T01:06:44.733Z,5.20
2018-03-27T01:09:12.198Z,5.10
2018-03-27T01:11:39.667Z,5.10
2018-03-27T01:14:07.955Z,5.20
2018-03-27T01:16:35.396Z,5.20
2018-03-27T01:19:03.666Z,5.20
2018-03-27T01:21:31.138Z,5.10
2018-03-27T01:23:59.393Z,5.30
2018-03-27T01:26:26.918Z,5.20
2018-03-27T01:28:54.441Z,5.20
2018-03-27T01:31:21.919Z,5.10
2018-03-27T01:33:49.429Z,5.10
2018-03-27T01:36:17.058Z,5.00
2018-03-27T01:38:45.244Z,5.00
2018-03-27T01:41:12.717Z,4.90
2018-03-27T01:43:40.190Z,4.90
2018-03-27T01:46:08.423Z,4.90
2018-03-27T01:48:35.890Z,4.80
2018-03-27T01:51:03.356Z,4.90
2018-03-27T01:53:30.821Z,5.00
2018-03-27T01:55:59.105Z,5.10
2018-03-27T01:58:27.367Z,5.10
2018-03-27T02:00:54.927Z,5.10
2018-03-27T02:03:22.405Z,5.10
2018-03-27T02:05:50.638Z,5.10
2018-03-27T02:08:19.386Z,5.00
2018-03-27T02:10:46.357Z,5.10
2018-03-27T02:13:19.438Z,5.10
2018-03-27T02:15:53.162Z,5.10
2018-03-27T02:18:26.247Z,5.10
2018-03-27T02:20:59.456Z,5.10
2018-03-27T02:23:26.945Z,5.20
2018-03-27T02:25:55.298Z,5.10
2018-03-27T02:28:22.798Z,5.10
2018-03-27T02:30:50.313Z,5.10
2018-03-27T02:33:18.559Z,5.20
2018-03-27T02:35:46.051Z,5.20
2018-03-27T02:38:13.523Z,5.20
2018-03-27T02:40:41.752Z,5.30
2018-03-27T02:43:09.224Z,5.20
2018-03-27T02:45:36.699Z,5.30
2018-03-27T02:48:04.250Z,5.30
2018-03-27T02:50:31.723Z,5.30
2018-03-27T02:52:59.967Z,5.40
2018-03-27T02:55:27.437Z,5.30
2018-03-27T02:57:54.902Z,5.30
2018-03-27T03:00:23.269Z,5.30
2018-03-27T03:02:50.742Z,5.30
2018-03-27T03:05:19.007Z,5.30
2018-03-27T03:07:46.479Z,5.30
2018-03-27T03:10:14.742Z,5.40
2018-03-27T03:12:42.210Z,5.40
2018-03-27T03:15:10.469Z,5.40
2018-03-27T03:17:37.920Z,5.40
2018-03-27T03:20:05.403Z,5.40
2018-03-27T03:22:32.867Z,5.40
2018-03-27T03:25:00.365Z,5.40
2018-03-27T03:27:27.820Z,5.50
2018-03-27T03:29:55.300Z,5.50
2018-03-27T03:32:22.961Z,5.50
2018-03-27T03:34:50.491Z,5.50
2018-03-27T03:37:17.958Z,5.40
2018-03-27T03:39:45.459Z,5.40
2018-03-27T03:42:13.700Z,5.30
2018-03-27T03:44:41.168Z,5.20
2018-03-27T03:47:10.182Z,5.20
2018-03-27T03:49:38.435Z,5.30
2018-03-27T03:52:05.917Z,5.20
2018-03-27T03:54:34.190Z,5.30
2018-03-27T03:57:02.452Z,5.10
2018-03-27T03:59:30.060Z,5.00
2018-03-27T04:01:57.619Z,5.00
2018-03-27T04:04:25.109Z,4.80
2018-03-27T04:06:52.589Z,4.60
2018-03-27T04:09:20.053Z,4.40
2018-03-27T04:11:48.330Z,4.20
2018-03-27T04:14:16.559Z,4.20
2018-03-27T04:16:44.018Z,4.10
2018-03-27T04:19:11.481Z,4.20
2018-03-27T04:21:38.950Z,4.10
2018-03-27T04:24:06.420Z,4.00
2018-03-27T04:26:35.414Z,3.50
2018-03-27T04:29:02.885Z,3.50
2018-03-27T04:31:31.142Z,3.40
2018-03-27T04:33:58.632Z,3.30
2018-03-27T04:36:26.079Z,3.40
2018-03-27T04:38:54.329Z,3.40
2018-03-27T04:41:21.802Z,3.30
2018-03-27T04:43:50.061Z,3.30
2018-03-27T04:46:17.612Z,3.20
2018-03-27T04:48:45.078Z,3.30
2018-03-27T04:51:12.635Z,3.20
2018-03-27T04:53:40.112Z,3.10
2018-03-27T04:56:07.588Z,3.10
2018-03-27T04:58:35.168Z,3.00
2018-03-27T05:01:02.643Z,2.90
2018-03-27T05:03:30.146Z,2.90
2018-03-27T05:05:58.409Z,3.00
2018-03-27T05:08:25.870Z,2.90
2018-03-27T05:10:53.347Z,3.00
2018-03-27T05:13:20.874Z,3.00
2018-03-27T05:15:48.374Z,3.10
2018-03-27T05:18:15.855Z,3.10
2018-03-27T05:20:43.344Z,3.10
2018-03-27T05:23:10.873Z,3.20
2018-03-27T05:25:38.346Z,3.20
2018-03-27T05:28:05.823Z,3.30
2018-03-27T05:30:33.289Z,3.40
2018-03-27T05:33:01.536Z,3.40
2018-03-27T05:35:29.012Z,3.40
2018-03-27T05:37:56.477Z,3.40
2018-03-27T05:40:24.790Z,3.40
2018-03-27T05:42:52.277Z,3.40
2018-03-27T05:45:19.756Z,3.60
2018-03-27T05:47:47.242Z,3.60
2018-03-27T05:50:14.701Z,3.80
2018-03-27T05:52:42.175Z,3.80
2018-03-27T05:55:09.656Z,3.90
2018-03-27T05:57:37.260Z,4.10
2018-03-27T06:00:04.753Z,4.20
2018-03-27T06:02:32.234Z,4.20
2018-03-27T06:04:59.868Z,4.20
2018-03-27T06:07:27.352Z,4.30
2018-03-27T06:09:54.830Z,4.40
2018-03-27T06:12:22.306Z,4.50
2018-03-27T06:14:50.561Z,4.50
2018-03-27T06:17:18.070Z,4.40
2018-03-27T06:19:45.554Z,4.60
2018-03-27T06:22:13.133Z,4.50
2018-03-27T06:24:42.118Z,4.50
2018-03-27T06:27:09.675Z,4.50
2018-03-27T06:29:37.232Z,4.50
2018-03-27T06:32:04.702Z,4.60
2018-03-27T06:34:32.259Z,4.60
2018-03-27T06:36:59.768Z,4.60
2018-03-27T06:39:27.240Z,4.80
2018-03-27T06:41:54.703Z,4.80
2018-03-27T06:44:22.186Z,4.80
2018-03-27T06:46:49.672Z,4.80
2018-03-27T06:49:17.908Z,4.80
2018-03-27T06:51:45.395Z,4.80
2018-03-27T06:54:13.626Z,4.90
2018-03-27T06:56:41.092Z,4.80
2018-03-27T06:59:08.601Z,5.10
2018-03-27T07:01:36.791Z,5.00
2018-03-27T07:04:04.303Z,5.00
2018-03-27T07:06:31.860Z,5.00
2018-03-27T07:09:01.818Z,5.10
2018-03-27T07:11:30.044Z,5.20
2018-03-27T07:13:57.601Z,5.20
2018-03-27T07:16:25.098Z,5.20
2018-03-27T07:18:52.623Z,5.20
2018-03-27T07:21:20.214Z,5.30
2018-03-27T07:23:48.433Z,5.50
2018-03-27T07:26:15.888Z,5.50
2018-03-27T07:28:43.362Z,5.70
2018-03-27T07:31:10.834Z,5.90
2018-03-27T07:33:38.301Z,6.10
2018-03-27T07:36:06.516Z,6.40
2018-03-27T07:38:34.034Z,6.30
2018-03-27T07:41:02.303Z,6.70
2018-03-27T07:43:30.543Z,6.70
2018-03-27T07:45:58.072Z,6.70
2018-03-27T07:48:25.585Z,6.50
2018-03-27T07:50:53.154Z,6.10
2018-03-27T07:53:21.420Z,6.30
2018-03-27T07:55:48.901Z,6.20
2018-03-27T07:58:16.476Z,6.50
2018-03-27T08:00:44.678Z,7.10
2018-03-27T08:03:12.136Z,7.10
2018-03-27T08:05:39.612Z,6.70
2018-03-27T08:08:07.088Z,6.50
2018-03-27T08:10:35.329Z,6.40
2018-03-27T08:13:02.800Z,6.40
2018-03-27T08:15:30.283Z,6.50
2018-03-27T08:17:58.508Z,6.80
2018-03-27T08:20:25.998Z,6.80
2018-03-27T08:22:54.984Z,7.00
2018-03-27T08:25:22.459Z,7.00
2018-03-27T08:27:50.733Z,7.50
2018-03-27T08:30:18.961Z,7.90
2018-03-27T08:32:46.430Z,7.90
2018-03-27T08:35:14.006Z,8.40
2018-03-27T08:37:42.238Z,9.10
2018-03-27T08:40:09.741Z,9.00
2018-03-27T08:42:37.251Z,8.80
2018-03-27T08:45:05.254Z,8.40
2018-03-27T08:47:32.825Z,8.10
2018-03-27T08:50:00.287Z,7.70
2018-03-27T08:52:27.778Z,7.20
2018-03-27T08:54:55.246Z,7.40
2018-03-27T08:57:22.732Z,8.30
2018-03-27T08:59:50.213Z,9.00
2018-03-27T09:02:17.775Z,9.80
2018-03-27T09:04:45.248Z,10.40
2018-03-27T09:07:13.506Z,10.50
2018-03-27T09:09:40.968Z,10.40
2018-03-27T09:12:09.202Z,10.10
2018-03-27T09:14:36.688Z,10.10
2018-03-27T09:17:04.260Z,10.30
2018-03-27T09:19:32.514Z,11.30
2018-03-27T09:21:59.990Z,11.20
2018-03-27T09:24:28.224Z,13.00
2018-03-27T09:26:55.726Z,13.00
2018-03-27T09:29:24.106Z,14.00
2018-03-27T09:31:52.425Z,14.60
2018-03-27T09:34:19.938Z,14.50
2018-03-27T09:36:47.425Z,15.20
2018-03-27T09:39:14.899Z,15.50
2018-03-27T09:41:42.525Z,15.80
2018-03-27T09:44:10.837Z,14.30
2018-03-27T09:46:38.317Z,14.20
2018-03-27T09:49:05.789Z,12.30
2018-03-27T09:51:33.274Z,11.40
2018-03-27T09:54:01.534Z,10.50
2018-03-27T09:56:29.776Z,10.60
2018-03-27T09:58:57.254Z,10.50
2018-03-27T10:01:27.671Z,10.80
2018-03-27T10:03:55.155Z,11.40
2018-03-27T10:06:23.409Z,12.20
2018-03-27T10:08:50.922Z,12.10
2018-03-27T10:11:19.146Z,12.20
2018-03-27T10:13:46.626Z,12.10
2018-03-27T10:16:14.108Z,11.70
2018-03-27T10:18:41.598Z,11.20
2018-03-27T10:21:09.077Z,10.90
2018-03-27T10:23:36.746Z,10.50
2018-03-27T10:26:04.209Z,10.00
2018-03-27T10:28:32.445Z,9.60
2018-03-27T10:30:59.922Z,9.50
2018-03-27T10:33:27.486Z,9.40
2018-03-27T10:35:54.953Z,9.50
2018-03-27T10:38:22.414Z,9.60
2018-03-27T10:40:50.652Z,9.80
2018-03-27T10:43:18.118Z,9.80
2018-03-27T10:45:45.653Z,10.00
2018-03-27T10:48:13.357Z,10.30
2018-03-27T10:50:40.816Z,10.70
2018-03-27T10:53:09.080Z,11.20
2018-03-27T10:55:36.567Z,11.20
2018-03-27T10:58:04.353Z,11.30
2018-03-27T11:00:31.861Z,11.10
2018-03-27T11:02:59.330Z,11.20
2018-03-27T11:05:27.586Z,11.50
2018-03-27T11:07:55.053Z,11.40
2018-03-27T11:10:23.292Z,13.50
2018-03-27T11:12:50.785Z,13.40
2018-03-27T11:15:18.253Z,15.10
2018-03-27T11:17:46.516Z,17.60
2018-03-27T11:20:14.038Z,17.50
2018-03-27T11:22:41.535Z,17.10
2018-03-27T11:25:08.997Z,16.40
2018-03-27T11:27:37.254Z,14.00
2018-03-27T11:30:04.720Z,13.90
2018-03-27T11:32:32.193Z,12.60
2018-03-27T11:34:59.648Z,11.80
2018-03-27T11:37:27.880Z,10.40
2018-03-27T11:39:55.373Z,10.40
2018-03-27T11:42:22.846Z,10.40
2018-03-27T11:44:51.192Z,10.20
2018-03-27T11:47:18.654Z,10.20
2018-03-27T11:49:46.135Z,10.00
2018-03-27T11:52:14.381Z,10.00
2018-03-27T11:54:41.894Z,9.90
2018-03-27T11:57:09.352Z,10.00
2018-03-27T11:59:36.856Z,10.00
2018-03-27T12:02:04.317Z,10.00
2018-03-27T12:04:32.558Z,10.00
2018-03-27T12:07:00.025Z,10.00
2018-03-27T12:09:27.508Z,9.80
2018-03-27T12:11:54.974Z,9.80
2018-03-27T12:14:23.234Z,9.90
2018-03-27T12:16:50.793Z,9.80
2018-03-27T12:19:18.249Z,9.80
2018-03-27T12:21:45.715Z,9.80
2018-03-27T12:24:13.167Z,9.70
2018-03-27T12:26:40.632Z,9.70
2018-03-27T12:29:08.094Z,9.70
2018-03-27T12:31:36.338Z,9.60
2018-03-27T12:34:03.897Z,9.60
2018-03-27T12:36:31.369Z,9.60
2018-03-27T12:38:58.920Z,9.50
2018-03-27T12:41:26.485Z,9.40
2018-03-27T12:43:53.947Z,9.40
2018-03-27T12:46:22.176Z,9.00
2018-03-27T12:48:49.651Z,9.00
2018-03-27T12:51:17.125Z,9.00
2018-03-27T12:53:44.638Z,8.90
2018-03-27T12:56:12.141Z,8.90
2018-03-27T12:58:39.596Z,8.90
2018-03-27T13:01:07.069Z,8.90
2018-03-27T13:03:34.621Z,9.10
2018-03-27T13:06:02.174Z,9.10
2018-03-27T13:08:30.440Z,9.30
2018-03-27T13:10:59.429Z,9.50
2018-03-27T13:13:26.897Z,9.50
2018-03-27T13:15:54.448Z,9.70
2018-03-27T13:18:21.913Z,9.80
2018-03-27T13:20:49.380Z,9.90
2018-03-27T13:23:16.837Z,9.90
2018-03-27T13:25:44.393Z,10.10
2018-03-27T13:28:11.860Z,10.10
2018-03-27T13:30:40.104Z,10.40
2018-03-27T13:33:07.568Z,10.30
2018-03-27T13:35:35.044Z,10.50
2018-03-27T13:38:02.593Z,10.40
2018-03-27T13:40:30.153Z,10.40
2018-03-27T13:42:57.621Z,10.60
2018-03-27T13:45:25.849Z,10.90
2018-03-27T13:47:53.338Z,10.90
2018-03-27T13:50:20.819Z,11.00
2018-03-27T13:52:49.054Z,11.30
2018-03-27T13:55:16.581Z,11.30
2018-03-27T13:57:44.050Z,11.80
2018-03-27T14:00:11.533Z,12.30
2018-03-27T14:02:39.015Z,12.60
2018-03-27T14:05:07.284Z,12.50
2018-03-27T14:07:35.530Z,12.60
2018-03-27T14:10:03.009Z,12.60
2018-03-27T14:12:31.262Z,12.60
2018-03-27T14:14:58.755Z,12.50
2018-03-27T14:17:27.014Z,12.90
2018-03-27T14:19:54.475Z,12.90
2018-03-27T14:22:22.737Z,12.70
2018-03-27T14:24:50.309Z,12.70
2018-03-27T14:27:17.876Z,12.80
2018-03-27T14:29:46.113Z,12.40
2018-03-27T14:32:13.684Z,12.40
2018-03-27T14:34:41.178Z,12.40
2018-03-27T14:37:08.767Z,12.80
2018-03-27T14:39:36.237Z,12.50
2018-03-27T14:42:03.717Z,12.70
2018-03-27T14:44:31.316Z,12.50
2018-03-27T14:46:59.567Z,12.40
2018-03-27T14:49:27.892Z,13.00
2018-03-27T14:51:55.378Z,13.00
2018-03-27T14:54:22.943Z,13.40
2018-03-27T14:56:50.521Z,13.60
2018-03-27T14:59:17.990Z,13.80
2018-03-27T15:01:46.221Z,14.00
2018-03-27T15:04:13.690Z,13.90
2018-03-27T15:06:41.260Z,14.00
2018-03-27T15:09:08.878Z,13.30
2018-03-27T15:11:36.337Z,13.10
2018-03-27T15:14:04.021Z,13.30
2018-03-27T15:16:31.496Z,13.60
2018-03-27T15:18:58.956Z,14.30
2018-03-27T15:21:26.505Z,14.70
2018-03-27T15:23:53.974Z,15.00
2018-03-27T15:26:22.249Z,15.50
2018-03-27T15:28:49.803Z,15.40
2018-03-27T15:31:17.269Z,16.20
2018-03-27T15:33:44.841Z,16.40
2018-03-27T15:36:12.315Z,16.40
2018-03-27T15:38:39.778Z,16.80
2018-03-27T15:41:07.288Z,17.40
2018-03-27T15:43:34.852Z,18.00
2018-03-27T15:46:02.315Z,18.70
2018-03-27T15:48:29.865Z,19.10
2018-03-27T15:50:57.338Z,19.30
2018-03-27T15:53:25.610Z,19.10
2018-03-27T15:55:53.070Z,19.10
2018-03-27T15:58:21.324Z,19.00
2018-03-27T16:00:48.902Z,18.90
2018-03-27T16:03:17.133Z,18.20
2018-03-27T16:05:44.601Z,18.20
2018-03-27T16:08:12.071Z,18.30
2018-03-27T16:10:39.542Z,18.40
2018-03-27T16:13:07.044Z,18.90
2018-03-27T16:15:34.549Z,19.40
2018-03-27T16:18:02.111Z,19.50
2018-03-27T16:20:29.577Z,19.10
2018-03-27T16:22:57.070Z,18.10
2018-03-27T16:25:24.537Z,17.50
2018-03-27T16:27:52.008Z,17.30
2018-03-27T16:30:19.474Z,17.00
2018-03-27T16:32:47.058Z,15.90
2018-03-27T16:35:14.511Z,15.20
2018-03-27T16:37:42.120Z,14.60
2018-03-27T16:40:09.728Z,14.10
2018-03-27T16:42:37.994Z,13.40
2018-03-27T16:45:05.444Z,13.30
2018-03-27T16:47:32.919Z,13.00
2018-03-27T16:50:00.476Z,12.40
2018-03-27T16:52:27.966Z,11.90
2018-03-27T16:54:55.436Z,11.30
2018-03-27T16:57:22.928Z,11.10
2018-03-27T16:59:50.401Z,10.90
2018-03-27T17:02:18.287Z,10.70
2018-03-27T17:04:46.590Z,10.40
2018-03-27T17:07:14.109Z,10.30
2018-03-27T17:09:57.500Z,10.30
2018-03-27T17:12:24.998Z,10.10
2018-03-27T17:15:07.340Z,9.80
2018-03-27T17:17:34.800Z,9.80
2018-03-27T17:20:02.284Z,9.70
2018-03-27T17:22:29.753Z,9.50
2018-03-27T17:24:57.221Z,9.40
2018-03-27T17:27:24.790Z,9.30
2018-03-27T17:29:53.037Z,9.20
2018-03-27T17:32:20.528Z,9.10
2018-03-27T17:34:48.807Z,9.00
2018-03-27T17:37:17.238Z,9.00
2018-03-27T17:39:44.717Z,9.00
2018-03-27T17:42:12.238Z,9.00
2018-03-27T17:44:39.775Z,9.00
2018-03-27T17:47:07.998Z,9.00
2018-03-27T17:49:35.523Z,9.00
2018-03-27T17:52:03.024Z,9.00
2018-03-27T17:54:30.521Z,9.00
2018-03-27T17:56:58.749Z,8.80
2018-03-27T17:59:26.221Z,8.70
2018-03-27T18:01:53.697Z,8.70
2018-03-27T18:04:21.954Z,8.70
2018-03-27T18:06:49.529Z,8.60
2018-03-27T18:09:17.760Z,8.50
2018-03-27T18:11:45.233Z,8.50
2018-03-27T18:14:12.806Z,8.60
2018-03-27T18:16:40.276Z,8.50
2018-03-27T18:19:07.821Z,8.50
2018-03-27T18:21:35.273Z,8.50
2018-03-27T18:24:02.834Z,8.40
2018-03-27T18:26:30.301Z,8.30
2018-03-27T18:28:57.780Z,8.30
2018-03-27T18:31:26.001Z,8.20
2018-03-27T18:33:53.492Z,8.10
2018-03-27T18:36:21.727Z,8.10
2018-03-27T18:38:49.192Z,8.10
2018-03-27T18:41:16.683Z,8.10
2018-03-27T18:43:44.947Z,8.10
2018-03-27T18:46:12.392Z,8.00
2018-03-27T18:48:39.858Z,8.10
2018-03-27T18:51:07.321Z,8.10
2018-03-27T18:53:34.791Z,8.10
2018-03-27T18:56:03.035Z,8.10
2018-03-27T18:58:30.496Z,8.00
2018-03-27T19:00:57.963Z,8.10
2018-03-27T19:03:25.512Z,8.00
2018-03-27T19:05:53.086Z,8.00
2018-03-27T19:08:20.571Z,8.00
2018-03-27T19:10:48.036Z,8.00
2018-03-27T19:13:15.502Z,7.90
2018-03-27T19:15:43.009Z,7.90
2018-03-27T19:18:10.482Z,7.90
2018-03-27T19:20:38.716Z,7.90
2018-03-27T19:23:06.253Z,7.80
2018-03-27T19:25:33.642Z,7.80
2018-03-27T19:28:01.107Z,7.90
2018-03-27T19:30:28.720Z,7.90
2018-03-27T19:32:56.292Z,7.90
2018-03-27T19:35:23.789Z,7.90
2018-03-27T19:37:51.250Z,8.00
2018-03-27T19:40:18.844Z,8.00
2018-03-27T19:42:46.366Z,8.10
2018-03-27T19:45:13.926Z,8.00
2018-03-27T19:47:41.390Z,8.00
2018-03-27T19:50:09.650Z,7.70
2018-03-27T19:52:37.211Z,7.70
2018-03-27T19:55:04.682Z,7.70
2018-03-27T19:57:32.922Z,7.60
2018-03-27T20:00:00.384Z,7.60
2018-03-27T20:02:27.854Z,7.50
2018-03-27T20:04:55.409Z,7.40
2018-03-27T20:07:23.072Z,7.40
2018-03-27T20:09:50.559Z,7.30
2018-03-27T20:12:18.109Z,7.30
2018-03-27T20:14:46.346Z,7.40
2018-03-27T20:17:13.805Z,7.30
2018-03-27T20:19:41.331Z,7.30
2018-03-27T20:22:08.801Z,7.20
2018-03-27T20:24:36.271Z,7.20
2018-03-27T20:27:03.746Z,7.20
2018-03-27T20:29:31.298Z,7.20
2018-03-27T20:31:58.869Z,7.10
2018-03-27T20:34:26.417Z,7.10
2018-03-27T20:36:53.879Z,7.00
2018-03-27T20:39:21.340Z,7.10
2018-03-27T20:41:49.626Z,6.90
2018-03-27T20:44:17.858Z,6.90
2018-03-27T20:46:45.351Z,6.80
2018-03-27T20:49:12.895Z,6.90
2018-03-27T20:51:40.352Z,6.90
2018-03-27T20:54:07.935Z,6.80
2018-03-27T20:56:36.169Z,6.70
2018-03-27T20:59:03.636Z,6.70
2018-03-27T21:01:31.097Z,6.60
2018-03-27T21:03:58.566Z,6.50
2018-03-27T21:06:26.019Z,6.40
2018-03-27T21:08:53.477Z,6.40
2018-03-27T21:11:21.721Z,6.30
2018-03-27T21:13:49.185Z,6.20
2018-03-27T21:16:16.663Z,6.30
2018-03-27T21:18:44.125Z,6.20
2018-03-27T21:21:11.723Z,6.20
2018-03-27T21:23:39.934Z,6.00
2018-03-27T21:26:07.394Z,6.00
2018-03-27T21:28:34.849Z,6.00
2018-03-27T21:31:02.317Z,6.00
2018-03-27T21:33:29.777Z,6.00
2018-03-27T21:35:57.250Z,5.90
2018-03-27T21:38:25.522Z,5.80
2018-03-27T21:40:52.981Z,5.70
2018-03-27T21:43:21.215Z,5.80
2018-03-27T21:45:48.804Z,5.70
2018-03-27T21:48:16.275Z,5.60
2018-03-27T21:50:43.790Z,5.50
2018-03-27T21:53:11.250Z,5.50
2018-03-27T21:55:38.730Z,5.50
2018-03-27T21:58:06.261Z,5.50
2018-03-27T22:00:34.465Z,5.50
2018-03-27T22:03:01.924Z,5.40
2018-03-27T22:05:29.472Z,5.50
2018-03-27T22:07:56.934Z,5.40
2018-03-27T22:10:24.400Z,5.40
2018-03-27T22:12:51.948Z,5.30
2018-03-27T22:15:19.422Z,5.30
2018-03-27T22:17:46.885Z,5.30
2018-03-27T22:20:15.132Z,5.20
2018-03-27T22:22:42.653Z,5.20
2018-03-27T22:25:10.153Z,5.20
2018-03-27T22:27:37.707Z,5.30
2018-03-27T22:30:05.179Z,5.20
2018-03-27T22:32:32.665Z,5.30
2018-03-27T22:35:00.271Z,5.30
2018-03-27T22:37:27.738Z,5.40
2018-03-27T22:39:55.306Z,5.40
2018-03-27T22:42:22.773Z,5.40
2018-03-27T22:44:51.046Z,5.40
2018-03-27T22:47:18.497Z,5.30
2018-03-27T22:49:46.015Z,5.30
2018-03-27T22:52:14.226Z,5.20
2018-03-27T22:54:41.676Z,5.10
2018-03-27T22:57:09.242Z,5.20
2018-03-27T22:59:36.707Z,5.20
2018-03-27T23:02:04.165Z,5.10
2018-03-27T23:04:31.724Z,5.10
2018-03-27T23:06:59.264Z,5.00
2018-03-27T23:09:26.741Z,5.10
2018-03-27T23:11:54.990Z,5.20
2018-03-27T23:14:22.463Z,5.10
2018-03-27T23:16:50.022Z,5.10
2018-03-27T23:19:17.581Z,5.10
2018-03-27T23:21:45.136Z,5.10
2018-03-27T23:24:12.702Z,5.10
2018-03-27T23:26:40.261Z,5.10
2018-03-27T23:29:07.805Z,5.10
2018-03-27T23:31:35.298Z,5.10
2018-03-27T23:34:02.754Z,5.10
2018-03-27T23:36:30.985Z,5.20
2018-03-27T23:38:58.452Z,5.10
2018-03-27T23:41:25.906Z,5.20
2018-03-27T23:43:53.372Z,5.20
2018-03-27T23:46:20.934Z,5.10
2018-03-27T23:48:48.402Z,5.10
2018-03-27T23:51:15.894Z,5.20
2018-03-27T23:53:43.423Z,5.30
2018-03-27T23:56:11.678Z,5.30
2018-03-27T23:58:39.143Z,5.20
